Time;durP1;ratioP1;P1;durP2;ratioP2;P2;SDS_P1;SDS_P2;PMS_P1;PMS_P2;Temp;Humidity;BMP_temperature;BMP_pressure;BME280_temperature;BME280_humidity;BME280_pressure;Samples;Min_cycle;Max_cycle;Signal;HPM_P1;HPM_P2
2023/06/19 00:01:41;;;;;;;;;;;17.50;57.20;;;;;;4181863;28;20376;-81
2023/06/19 00:04:01;;;;;;;;;;;17.50;57.20;;;;;;4178400;28;19925;-81
2023/06/19 00:06:22;;;;;;;;;;;17.40;57.20;;;;;;4179985;28;19935;-81
2023/06/19 00:08:43;;;;;;;;;;;17.40;57.30;;;;;;4175142;28;20027;-81
2023/06/19 00:11:04;;;;;;;;;;;17.40;57.40;;;;;;4180727;28;20438;-82
2023/06/19 00:13:25;;;;;;;;;;;17.30;57.40;;;;;;4179528;28;19913;-82
2023/06/19 00:15:46;;;;;;;;;;;17.30;57.40;;;;;;4166863;28;19920;-82
2023/06/19 00:18:07;;;;;;;;;;;17.30;57.50;;;;;;4182582;28;19935;-81
2023/06/19 00:20:28;;;;;;;;;;;17.30;57.80;;;;;;4180899;28;19916;-81
2023/06/19 00:22:51;;;;;;;;;;;17.20;57.70;;;;;;4180901;28;19916;-81
2023/06/19 00:25:12;;;;;;;;;;;17.20;57.80;;;;;;4192793;28;20008;-82
2023/06/19 00:27:33;;;;;;;;;;;17.20;58.20;;;;;;4182128;28;20393;-82
2023/06/19 00:29:53;;;;;;;;;;;17.10;57.80;;;;;;4178576;28;19987;-80
2023/06/19 00:32:16;;;;;;;;;;;17.10;57.70;;;;;;4188514;28;19917;-81
2023/06/19 00:34:37;;;;;;;;;;;17.10;57.60;;;;;;4180913;28;19917;-81
2023/06/19 00:36:58;;;;;;;;;;;17.00;57.60;;;;;;4184301;28;20437;-82
2023/06/19 00:39:18;;;;;;;;;;;17.00;57.60;;;;;;4192971;28;20433;-81
2023/06/19 00:41:40;;;;;;;;;;;17.00;57.60;;;;;;4187565;28;19913;-81
2023/06/19 00:44:01;;;;;;;;;;;17.00;57.70;;;;;;4184910;28;19920;-80
2023/06/19 00:46:22;;;;;;;;;;;17.00;57.70;;;;;;4181128;28;19935;-80
2023/06/19 00:48:43;;;;;;;;;;;16.90;58.00;;;;;;4191203;28;20110;-81
2023/06/19 00:51:03;;;;;;;;;;;16.90;58.00;;;;;;4180999;28;19913;-81
2023/06/19 00:53:25;;;;;;;;;;;16.90;58.20;;;;;;4181120;28;19913;-81
2023/06/19 00:55:47;;;;;;;;;;;16.80;58.10;;;;;;4178005;28;19927;-82
2023/06/19 00:58:08;;;;;;;;;;;16.80;58.30;;;;;;4177001;28;19925;-81
2023/06/19 01:00:29;;;;;;;;;;;16.70;58.20;;;;;;4193422;28;19927;-79
2023/06/19 01:02:50;;;;;;;;;;;16.70;58.10;;;;;;4191945;28;19959;-83
2023/06/19 01:05:11;;;;;;;;;;;16.70;58.30;;;;;;4189481;28;19925;-82
2023/06/19 01:07:40;;;;;;;;;;;16.70;58.40;;;;;;4185609;28;19944;-80
2023/06/19 01:10:04;;;;;;;;;;;16.70;58.70;;;;;;4191752;28;19913;-81
2023/06/19 01:12:29;;;;;;;;;;;16.70;59.00;;;;;;4197786;28;20003;-82
2023/06/19 01:15:00;;;;;;;;;;;16.60;59.20;;;;;;4187126;28;19996;-81
2023/06/19 01:17:21;;;;;;;;;;;16.60;58.90;;;;;;4180295;28;19928;-81
2023/06/19 01:19:45;;;;;;;;;;;16.50;58.70;;;;;;4184590;28;21262;-81
2023/06/19 01:22:06;;;;;;;;;;;16.50;59.30;;;;;;4182756;28;19913;-81
2023/06/19 01:24:27;;;;;;;;;;;16.50;59.20;;;;;;4184367;28;20323;-81
2023/06/19 01:26:48;;;;;;;;;;;16.50;59.30;;;;;;4181229;28;20390;-82
2023/06/19 01:29:09;;;;;;;;;;;16.40;59.20;;;;;;4181065;28;19924;-82
2023/06/19 01:31:56;;;;;;;;;;;16.40;59.10;;;;;;4184461;28;20039;-81
2023/06/19 01:34:19;;;;;;;;;;;16.40;58.90;;;;;;4177208;28;19920;-81
2023/06/19 01:36:40;;;;;;;;;;;16.30;58.60;;;;;;4184202;28;19920;-82
2023/06/19 01:39:01;;;;;;;;;;;16.30;58.60;;;;;;4182546;28;19924;-82
2023/06/19 01:41:22;;;;;;;;;;;16.30;58.80;;;;;;4181826;28;19924;-81
2023/06/19 01:43:44;;;;;;;;;;;16.30;58.50;;;;;;4183173;28;19925;-81
2023/06/19 01:46:05;;;;;;;;;;;16.30;58.60;;;;;;4182113;28;20015;-82
2023/06/19 01:48:27;;;;;;;;;;;16.20;58.70;;;;;;4181694;28;19921;-80
2023/06/19 01:50:48;;;;;;;;;;;16.20;58.90;;;;;;4172572;28;19921;-82
2023/06/19 01:53:09;;;;;;;;;;;16.20;59.00;;;;;;4182615;28;19927;-81
2023/06/19 01:55:30;;;;;;;;;;;16.20;59.20;;;;;;4183867;28;20008;-82
2023/06/19 01:57:51;;;;;;;;;;;16.20;59.10;;;;;;4181485;28;20118;-82
2023/06/19 02:00:12;;;;;;;;;;;16.10;58.90;;;;;;4178526;28;20055;-82
2023/06/19 02:02:33;;;;;;;;;;;16.10;59.00;;;;;;4179231;28;19949;-81
2023/06/19 02:04:54;;;;;;;;;;;16.10;59.30;;;;;;4183049;28;19917;-82
2023/06/19 02:07:14;;;;;;;;;;;16.20;59.30;;;;;;4196886;28;19916;-82
2023/06/19 02:09:36;;;;;;;;;;;16.10;59.60;;;;;;4181619;28;19913;-82
2023/06/19 02:11:56;;;;;;;;;;;16.10;60.00;;;;;;4182222;28;19913;-82
2023/06/19 02:14:17;;;;;;;;;;;16.10;59.80;;;;;;4180687;28;20434;-82
2023/06/19 02:16:38;;;;;;;;;;;16.10;59.90;;;;;;4178000;28;21459;-81
2023/06/19 02:19:00;;;;;;;;;;;16.10;60.10;;;;;;4182167;28;20550;-81
2023/06/19 02:21:20;;;;;;;;;;;16.10;60.20;;;;;;4191679;28;20534;-82
2023/06/19 02:23:41;;;;;;;;;;;16.00;60.10;;;;;;4180182;28;19999;-81
2023/06/19 02:26:03;;;;;;;;;;;16.00;60.10;;;;;;4175090;28;19913;-80
2023/06/19 02:28:24;;;;;;;;;;;16.00;60.10;;;;;;4180564;28;20430;-82
2023/06/19 02:30:44;;;;;;;;;;;16.00;59.50;;;;;;4181258;28;19916;-82
2023/06/19 02:33:05;;;;;;;;;;;16.00;59.40;;;;;;4177933;28;19917;-81
2023/06/19 02:35:26;;;;;;;;;;;16.10;59.50;;;;;;4186233;28;19916;-81
2023/06/19 02:37:47;;;;;;;;;;;16.10;59.80;;;;;;4178646;28;21783;-81
2023/06/19 02:40:10;;;;;;;;;;;16.00;60.10;;;;;;4183431;28;19974;-81
2023/06/19 02:42:31;;;;;;;;;;;16.00;60.20;;;;;;4193827;28;20402;-80
2023/06/19 02:44:52;;;;;;;;;;;16.00;60.60;;;;;;4183970;28;19923;-82
2023/06/19 02:47:12;;;;;;;;;;;16.00;60.70;;;;;;4180752;28;19963;-82
2023/06/19 02:49:33;;;;;;;;;;;16.00;61.80;;;;;;4183448;28;19913;-80
2023/06/19 02:51:54;;;;;;;;;;;16.00;61.20;;;;;;4184405;28;19917;-81
2023/06/19 02:54:15;;;;;;;;;;;16.00;61.20;;;;;;4178027;28;19916;-81
2023/06/19 02:56:36;;;;;;;;;;;16.00;61.40;;;;;;4181148;28;20015;-81
2023/06/19 02:58:57;;;;;;;;;;;16.10;62.60;;;;;;4194196;28;19944;-80
2023/06/19 03:01:18;;;;;;;;;;;16.00;62.90;;;;;;4179400;28;20159;-82
2023/06/19 03:03:40;;;;;;;;;;;16.00;62.80;;;;;;4180587;28;20150;-82
2023/06/19 03:06:01;;;;;;;;;;;16.00;62.60;;;;;;4178122;28;19916;-82
2023/06/19 03:08:22;;;;;;;;;;;16.00;61.80;;;;;;4177959;28;19917;-81
2023/06/19 03:10:43;;;;;;;;;;;16.00;64.30;;;;;;4177919;28;19913;-82
2023/06/19 03:13:04;;;;;;;;;;;16.00;66.20;;;;;;4180693;28;19951;-82
2023/06/19 03:15:25;;;;;;;;;;;16.00;64.60;;;;;;4178732;28;19986;-81
2023/06/19 03:17:45;;;;;;;;;;;16.00;64.00;;;;;;4190819;28;19916;-81
2023/06/19 03:20:09;;;;;;;;;;;16.00;62.80;;;;;;4181922;28;19917;-82
2023/06/19 03:22:29;;;;;;;;;;;16.00;62.90;;;;;;4178596;28;19916;-82
2023/06/19 03:24:51;;;;;;;;;;;16.00;63.40;;;;;;4188912;28;20398;-81
2023/06/19 03:27:12;;;;;;;;;;;16.00;63.00;;;;;;4180013;28;20478;-82
2023/06/19 03:29:33;;;;;;;;;;;16.00;62.70;;;;;;4181521;28;19979;-82
2023/06/19 03:31:57;;;;;;;;;;;16.10;62.80;;;;;;4183260;28;20279;-80
2023/06/19 03:34:18;;;;;;;;;;;16.10;63.20;;;;;;4190092;28;19927;-81
2023/06/19 03:36:38;;;;;;;;;;;16.10;65.00;;;;;;4187710;28;19927;-81
2023/06/19 03:38:59;;;;;;;;;;;16.10;64.60;;;;;;4184247;28;20418;-81
2023/06/19 03:41:20;;;;;;;;;;;16.10;63.90;;;;;;4186408;28;19923;-80
2023/06/19 03:43:41;;;;;;;;;;;16.10;63.60;;;;;;4179099;28;19983;-80
2023/06/19 03:46:02;;;;;;;;;;;16.20;63.90;;;;;;4177724;28;19936;-81
2023/06/19 03:48:23;;;;;;;;;;;16.20;63.60;;;;;;4181983;28;19919;-79
2023/06/19 03:50:43;;;;;;;;;;;16.30;64.00;;;;;;4192247;28;19917;-80
2023/06/19 03:53:04;;;;;;;;;;;16.30;64.00;;;;;;4183145;28;19927;-80
2023/06/19 03:55:25;;;;;;;;;;;16.40;63.70;;;;;;4178334;28;19920;-80
2023/06/19 03:57:46;;;;;;;;;;;16.50;63.90;;;;;;4181563;28;20175;-81
2023/06/19 04:00:07;;;;;;;;;;;16.50;63.90;;;;;;4181335;28;20496;-81
2023/06/19 04:02:28;;;;;;;;;;;16.60;65.80;;;;;;4179991;28;20165;-81
2023/06/19 04:04:49;;;;;;;;;;;16.70;65.20;;;;;;4184391;28;19921;-82
2023/06/19 04:07:10;;;;;;;;;;;16.80;65.50;;;;;;4181017;28;19916;-81
2023/06/19 04:09:31;;;;;;;;;;;16.80;67.90;;;;;;4179976;28;19913;-80
2023/06/19 04:11:51;;;;;;;;;;;16.90;69.70;;;;;;4177826;28;19927;-81
2023/06/19 04:14:12;;;;;;;;;;;17.00;70.80;;;;;;4186231;28;19928;-82
2023/06/19 04:16:33;;;;;;;;;;;17.10;68.80;;;;;;4176182;28;20208;-80
2023/06/19 04:18:54;;;;;;;;;;;17.20;71.20;;;;;;4176808;28;19912;-82
2023/06/19 04:21:15;;;;;;;;;;;17.30;70.30;;;;;;4175276;28;19917;-81
2023/06/19 04:23:36;;;;;;;;;;;17.40;69.60;;;;;;4188160;28;19932;-82
2023/06/19 04:25:57;;;;;;;;;;;17.50;69.40;;;;;;4177570;28;19917;-82
2023/06/19 04:28:17;;;;;;;;;;;17.60;69.00;;;;;;4185136;28;19994;-81
2023/06/19 04:30:42;;;;;;;;;;;17.70;68.00;;;;;;4172415;28;19916;-81
2023/06/19 04:33:04;;;;;;;;;;;17.70;67.30;;;;;;4179515;28;19913;-80
2023/06/19 04:35:25;;;;;;;;;;;17.80;67.00;;;;;;4174040;28;19984;-81
2023/06/19 04:37:48;;;;;;;;;;;17.90;66.70;;;;;;4173100;28;19920;-81
2023/06/19 04:40:10;;;;;;;;;;;18.00;66.50;;;;;;4175735;28;19912;-81
2023/06/19 04:42:31;;;;;;;;;;;18.00;67.70;;;;;;4175829;28;20421;-81
2023/06/19 04:44:52;;;;;;;;;;;18.00;67.60;;;;;;4177421;28;19917;-81
2023/06/19 04:47:14;;;;;;;;;;;18.10;66.60;;;;;;4187183;28;19916;-80
2023/06/19 04:49:34;;;;;;;;;;;18.10;66.60;;;;;;4180302;28;19924;-82
2023/06/19 04:51:56;;;;;;;;;;;18.20;68.10;;;;;;4175569;28;20000;-80
2023/06/19 04:54:17;;;;;;;;;;;18.20;68.00;;;;;;4177974;28;20035;-81
2023/06/19 04:56:38;;;;;;;;;;;18.20;68.00;;;;;;4180665;28;19967;-81
2023/06/19 04:58:59;;;;;;;;;;;18.30;69.10;;;;;;4177888;28;19932;-81
2023/06/19 05:01:27;;;;;;;;;;;18.20;68.50;;;;;;4180620;28;19920;-82
2023/06/19 05:03:48;;;;;;;;;;;18.30;67.50;;;;;;4173908;28;19928;-82
2023/06/19 05:06:08;;;;;;;;;;;18.40;67.90;;;;;;4180554;28;19943;-81
2023/06/19 05:08:29;;;;;;;;;;;18.40;68.60;;;;;;4178117;28;19944;-81
2023/06/19 05:10:50;;;;;;;;;;;18.40;68.20;;;;;;4187716;28;20422;-82
2023/06/19 05:13:11;;;;;;;;;;;18.40;67.40;;;;;;4184907;28;20434;-82
2023/06/19 05:15:32;;;;;;;;;;;18.40;67.40;;;;;;4173169;28;19939;-82
2023/06/19 05:17:53;;;;;;;;;;;18.50;66.70;;;;;;4182781;28;19920;-81
2023/06/19 05:20:13;;;;;;;;;;;18.50;66.30;;;;;;4182868;28;19921;-81
2023/06/19 05:22:34;;;;;;;;;;;18.50;66.50;;;;;;4170323;28;20405;-82
2023/06/19 05:24:55;;;;;;;;;;;18.50;67.50;;;;;;4178114;28;19924;-82
2023/06/19 05:27:16;;;;;;;;;;;18.50;69.20;;;;;;4181273;28;19916;-83
2023/06/19 05:29:37;;;;;;;;;;;18.50;70.00;;;;;;4184417;28;19916;-82
2023/06/19 05:31:58;;;;;;;;;;;18.60;69.30;;;;;;4184409;28;19913;-83
2023/06/19 05:34:18;;;;;;;;;;;18.60;68.10;;;;;;4184963;28;19921;-82
2023/06/19 05:36:39;;;;;;;;;;;18.60;67.50;;;;;;4184524;28;19924;-81
2023/06/19 05:39:00;;;;;;;;;;;18.60;69.40;;;;;;4185250;28;19924;-82
2023/06/19 05:41:21;;;;;;;;;;;18.60;68.20;;;;;;4183624;28;19967;-84
2023/06/19 05:43:43;;;;;;;;;;;18.60;68.20;;;;;;4193656;28;19920;-81
2023/06/19 05:46:03;;;;;;;;;;;18.60;68.00;;;;;;4183202;28;19917;-83
2023/06/19 05:48:25;;;;;;;;;;;18.70;67.10;;;;;;4179206;28;20015;-82
2023/06/19 05:50:46;;;;;;;;;;;18.70;66.90;;;;;;4185291;28;19913;-83
2023/06/19 05:53:07;;;;;;;;;;;18.70;66.80;;;;;;4191108;28;19924;-83
2023/06/19 05:55:27;;;;;;;;;;;18.70;66.50;;;;;;4179223;28;20454;-82
2023/06/19 05:57:48;;;;;;;;;;;18.70;66.70;;;;;;4183037;28;20448;-82
2023/06/19 06:00:14;;;;;;;;;;;18.80;66.40;;;;;;4188969;28;19912;-84
2023/06/19 06:02:34;;;;;;;;;;;18.80;66.20;;;;;;4176870;28;19959;-83
2023/06/19 06:04:56;;;;;;;;;;;18.80;66.30;;;;;;4182481;28;19917;-84
2023/06/19 06:07:17;;;;;;;;;;;18.80;66.10;;;;;;4180354;28;19920;-83
2023/06/19 06:09:37;;;;;;;;;;;18.80;66.20;;;;;;4185098;28;19944;-85
2023/06/19 06:11:59;;;;;;;;;;;18.80;66.10;;;;;;4178478;28;19921;-81
2023/06/19 06:14:20;;;;;;;;;;;18.80;66.50;;;;;;4166447;28;20374;-83
2023/06/19 06:16:41;;;;;;;;;;;18.80;66.50;;;;;;4180359;28;19925;-83
2023/06/19 06:19:02;;;;;;;;;;;18.80;67.00;;;;;;4174117;28;19913;-82
2023/06/19 06:21:23;;;;;;;;;;;18.80;67.00;;;;;;4179718;28;19920;-81
2023/06/19 06:23:44;;;;;;;;;;;18.90;66.60;;;;;;4187640;28;20798;-82
2023/06/19 06:26:05;;;;;;;;;;;18.90;66.20;;;;;;4176762;28;19912;-82
2023/06/19 06:28:26;;;;;;;;;;;18.90;66.90;;;;;;4176601;28;19912;-81
2023/06/19 06:30:47;;;;;;;;;;;18.90;66.50;;;;;;4183029;28;19924;-82
2023/06/19 06:33:08;;;;;;;;;;;18.90;66.40;;;;;;4179650;28;19992;-81
2023/06/19 06:35:29;;;;;;;;;;;18.90;66.10;;;;;;4174087;28;19920;-82
2023/06/19 06:37:49;;;;;;;;;;;18.90;65.90;;;;;;4185546;28;20023;-81
2023/06/19 06:40:13;;;;;;;;;;;18.90;66.00;;;;;;4187097;28;19909;-84
2023/06/19 06:42:34;;;;;;;;;;;19.00;65.80;;;;;;4182579;28;19920;-84
2023/06/19 06:44:55;;;;;;;;;;;19.00;65.70;;;;;;4165338;28;19943;-82
2023/06/19 06:47:16;;;;;;;;;;;18.90;65.80;;;;;;4173594;28;20055;-83
2023/06/19 06:49:37;;;;;;;;;;;19.00;65.80;;;;;;4185363;28;19916;-83
2023/06/19 06:51:57;;;;;;;;;;;19.00;65.50;;;;;;4188884;28;19931;-83
2023/06/19 06:54:18;;;;;;;;;;;19.00;65.50;;;;;;4169933;28;21514;-82
2023/06/19 06:56:39;;;;;;;;;;;19.10;65.80;;;;;;4189590;28;20430;-83
2023/06/19 06:59:03;;;;;;;;;;;19.00;65.50;;;;;;4193095;28;19916;-82
2023/06/19 07:01:24;;;;;;;;;;;19.00;66.00;;;;;;4166031;28;19909;-83
2023/06/19 07:03:47;;;;;;;;;;;19.00;65.80;;;;;;4176519;28;20285;-82
2023/06/19 07:06:08;;;;;;;;;;;19.10;65.50;;;;;;4180005;28;19916;-82
2023/06/19 07:08:29;;;;;;;;;;;19.10;65.70;;;;;;4174758;28;19979;-82
2023/06/19 07:10:50;;;;;;;;;;;19.10;65.70;;;;;;4181034;28;20040;-82
2023/06/19 07:13:14;;;;;;;;;;;19.10;65.80;;;;;;4179147;28;20026;-84
2023/06/19 07:15:34;;;;;;;;;;;19.10;65.60;;;;;;4175998;28;19920;-83
2023/06/19 07:17:55;;;;;;;;;;;19.10;65.70;;;;;;4187382;28;20114;-81
2023/06/19 07:20:16;;;;;;;;;;;19.20;65.50;;;;;;4194139;28;19912;-81
2023/06/19 07:22:37;;;;;;;;;;;19.20;65.40;;;;;;4179028;28;20275;-83
2023/06/19 07:24:58;;;;;;;;;;;19.20;65.60;;;;;;4186474;28;19999;-83
2023/06/19 07:27:19;;;;;;;;;;;19.30;65.50;;;;;;4196335;28;19916;-81
2023/06/19 07:29:39;;;;;;;;;;;19.30;65.50;;;;;;4181607;28;20439;-82
2023/06/19 07:32:02;;;;;;;;;;;19.30;66.20;;;;;;4184141;28;20031;-83
2023/06/19 07:34:23;;;;;;;;;;;19.30;65.70;;;;;;4182043;28;20107;-82
2023/06/19 07:36:44;;;;;;;;;;;19.40;65.60;;;;;;4188366;28;19916;-81
2023/06/19 07:39:04;;;;;;;;;;;19.40;65.40;;;;;;4172829;28;19917;-84
2023/06/19 07:41:25;;;;;;;;;;;19.30;65.30;;;;;;4172188;28;19916;-84
2023/06/19 07:43:46;;;;;;;;;;;19.40;65.40;;;;;;4183420;28;19917;-83
2023/06/19 07:46:07;;;;;;;;;;;19.40;65.20;;;;;;4180645;28;19917;-84
2023/06/19 07:48:28;;;;;;;;;;;19.40;65.30;;;;;;4191831;28;20500;-83
2023/06/19 07:50:49;;;;;;;;;;;19.50;65.20;;;;;;4186919;28;19920;-82
2023/06/19 07:53:10;;;;;;;;;;;19.50;65.00;;;;;;4179933;28;19975;-84
2023/06/19 07:55:30;;;;;;;;;;;19.50;65.10;;;;;;4173849;28;19916;-83
2023/06/19 07:57:52;;;;;;;;;;;19.60;65.10;;;;;;4191258;28;19917;-82
2023/06/19 08:00:13;;;;;;;;;;;19.60;65.10;;;;;;4172293;28;19921;-83
2023/06/19 08:02:34;;;;;;;;;;;19.60;65.10;;;;;;4175591;28;20378;-84
2023/06/19 08:04:55;;;;;;;;;;;19.70;65.10;;;;;;4186970;28;19991;-86
2023/06/19 08:07:16;;;;;;;;;;;19.70;65.00;;;;;;4174800;28;19916;-85
2023/06/19 08:09:36;;;;;;;;;;;19.70;64.90;;;;;;4178984;28;20050;-83
2023/06/19 08:11:57;;;;;;;;;;;19.70;65.00;;;;;;4173481;28;19921;-83
2023/06/19 08:14:21;;;;;;;;;;;19.70;65.10;;;;;;4179829;28;19956;-82
2023/06/19 08:16:42;;;;;;;;;;;19.70;65.00;;;;;;4176701;28;19964;-83
2023/06/19 08:19:03;;;;;;;;;;;19.70;64.90;;;;;;4183148;28;19962;-83
2023/06/19 08:21:24;;;;;;;;;;;19.70;65.40;;;;;;4183313;28;19966;-83
2023/06/19 08:23:45;;;;;;;;;;;19.70;65.10;;;;;;4188184;28;19935;-84
2023/06/19 08:26:07;;;;;;;;;;;19.70;65.20;;;;;;4181011;28;19923;-81
2023/06/19 08:28:30;;;;;;;;;;;19.70;65.70;;;;;;4176994;28;19942;-82
2023/06/19 08:30:51;;;;;;;;;;;19.70;65.30;;;;;;4181922;28;20390;-83
2023/06/19 08:33:15;;;;;;;;;;;19.70;65.40;;;;;;4174190;28;20012;-83
2023/06/19 08:35:36;;;;;;;;;;;19.70;65.60;;;;;;4177399;28;19921;-82
2023/06/19 08:37:57;;;;;;;;;;;19.70;65.70;;;;;;4178178;28;19924;-84
2023/06/19 08:40:19;;;;;;;;;;;19.70;66.30;;;;;;4185472;28;19912;-83
2023/06/19 08:42:42;;;;;;;;;;;19.80;66.10;;;;;;4173349;28;19945;-84
2023/06/19 08:45:03;;;;;;;;;;;19.70;65.90;;;;;;4180599;28;19927;-82
2023/06/19 08:47:28;;;;;;;;;;;19.70;66.30;;;;;;4179301;28;20327;-84
2023/06/19 08:49:49;;;;;;;;;;;19.80;66.10;;;;;;4193849;28;20011;-82
2023/06/19 08:52:10;;;;;;;;;;;19.70;66.20;;;;;;4182056;28;20298;-83
2023/06/19 08:54:32;;;;;;;;;;;19.80;66.50;;;;;;4181656;28;19924;-83
2023/06/19 08:56:56;;;;;;;;;;;19.80;66.30;;;;;;4180556;28;19944;-83
2023/06/19 08:59:17;;;;;;;;;;;19.80;66.60;;;;;;4183480;28;19912;-83
2023/06/19 09:01:38;;;;;;;;;;;19.80;66.50;;;;;;4194539;28;20379;-83
2023/06/19 09:03:59;;;;;;;;;;;19.80;66.70;;;;;;4177234;28;19917;-82
2023/06/19 09:06:20;;;;;;;;;;;19.70;67.00;;;;;;4183114;28;19917;-84
2023/06/19 09:08:41;;;;;;;;;;;19.80;67.60;;;;;;4185452;28;20432;-84
2023/06/19 09:11:02;;;;;;;;;;;19.70;67.20;;;;;;4184955;28;19932;-85
2023/06/19 09:13:23;;;;;;;;;;;19.70;68.00;;;;;;4183028;28;19922;-83
2023/06/19 09:15:44;;;;;;;;;;;19.70;67.30;;;;;;4196618;28;19924;-83
2023/06/19 09:18:05;;;;;;;;;;;19.70;67.00;;;;;;4178942;28;20449;-84
2023/06/19 09:20:27;;;;;;;;;;;19.70;67.60;;;;;;4182485;28;19912;-83
2023/06/19 09:22:48;;;;;;;;;;;19.80;67.50;;;;;;4186511;28;19924;-83
2023/06/19 09:25:12;;;;;;;;;;;19.80;69.00;;;;;;4180326;28;19944;-85
2023/06/19 09:27:33;;;;;;;;;;;19.80;68.60;;;;;;4197407;28;19909;-83
2023/06/19 09:29:54;;;;;;;;;;;19.80;68.40;;;;;;4184359;28;19920;-83
2023/06/19 09:32:15;;;;;;;;;;;19.90;68.30;;;;;;4184161;28;19921;-84
2023/06/19 09:34:36;;;;;;;;;;;19.90;70.00;;;;;;4188092;28;19908;-83
2023/06/19 09:36:57;;;;;;;;;;;19.90;70.50;;;;;;4187840;28;19920;-84
2023/06/19 09:39:19;;;;;;;;;;;19.90;70.90;;;;;;4184001;28;20013;-81
2023/06/19 09:41:40;;;;;;;;;;;20.00;70.60;;;;;;4180541;28;19982;-84
2023/06/19 09:44:02;;;;;;;;;;;20.10;70.30;;;;;;4182742;28;22036;-83
2023/06/19 09:46:26;;;;;;;;;;;20.20;70.50;;;;;;4177849;28;19916;-82
2023/06/19 09:48:48;;;;;;;;;;;20.30;70.20;;;;;;4182351;28;19919;-83
2023/06/19 09:51:12;;;;;;;;;;;20.40;70.90;;;;;;4182503;28;19924;-84
2023/06/19 09:53:33;;;;;;;;;;;20.50;70.40;;;;;;4184617;28;21425;-82
2023/06/19 09:55:55;;;;;;;;;;;20.60;71.20;;;;;;4183841;28;20003;-84
2023/06/19 09:58:18;;;;;;;;;;;20.60;72.10;;;;;;4178928;28;19921;-85
2023/06/19 10:00:39;;;;;;;;;;;20.80;71.80;;;;;;4179926;28;19920;-83
2023/06/19 10:03:40;;;;;;;;;;;;;;;;;;;;;
2023/06/19 10:06:16;;;;;;;;;;;21.00;71.20;;;;;;4129303;28;20019;-90
2023/06/19 10:08:40;;;;;;;;;;;21.30;71.00;;;;;;4151116;28;20470;-87
2023/06/19 10:11:33;;;;;;;;;;;;;;;;;;;;;
2023/06/19 10:14:13;;;;;;;;;;;21.70;69.80;;;;;;4125120;28;19957;-91
2023/06/19 10:16:40;;;;;;;;;;;21.80;68.00;;;;;;4122592;28;19918;-88
2023/06/19 10:19:14;;;;;;;;;;;22.00;68.00;;;;;;4167882;28;19932;-90
2023/06/19 10:21:43;;;;;;;;;;;22.10;67.80;;;;;;4158205;28;19928;-89
2023/06/19 10:24:13;;;;;;;;;;;22.20;68.30;;;;;;4169377;28;19971;-90
2023/06/19 10:26:37;;;;;;;;;;;22.40;67.60;;;;;;4152216;28;21236;-86
2023/06/19 10:28:59;;;;;;;;;;;22.60;67.70;;;;;;4156301;28;21948;-88
2023/06/19 10:31:43;;;;;;;;;;;22.70;67.50;;;;;;4157839;28;19917;-89
2023/06/19 10:34:03;;;;;;;;;;;22.90;66.10;;;;;;4161591;28;19931;-88
2023/06/19 10:36:25;;;;;;;;;;;23.10;65.70;;;;;;4143835;28;20330;-88
2023/06/19 10:38:53;;;;;;;;;;;23.20;65.30;;;;;;4159644;28;19920;-88
2023/06/19 10:41:30;;;;;;;;;;;23.30;63.10;;;;;;4152785;28;19913;-92
2023/06/19 10:43:58;;;;;;;;;;;23.40;63.50;;;;;;4148099;28;19922;-90
2023/06/19 10:46:25;;;;;;;;;;;23.60;63.20;;;;;;4161362;28;19975;-89
2023/06/19 10:49:04;;;;;;;;;;;23.60;63.70;;;;;;4161382;28;19924;-89
2023/06/19 10:52:26;;;;;;;;;;;23.80;63.20;;;;;;4163882;28;19924;-88
2023/06/19 10:55:16;;;;;;;;;;;23.90;62.40;;;;;;4116778;28;20206;-90
2023/06/19 10:57:40;;;;;;;;;;;24.10;61.70;;;;;;4117813;28;19977;-91
2023/06/19 11:00:09;;;;;;;;;;;24.20;61.50;;;;;;4111748;28;20416;-87
2023/06/19 11:02:43;;;;;;;;;;;24.30;60.60;;;;;;4099250;28;19936;-87
2023/06/19 11:05:23;;;;;;;;;;;24.40;60.30;;;;;;4132657;28;20342;-88
2023/06/19 11:08:03;;;;;;;;;;;24.60;58.40;;;;;;4118628;28;19925;-92
2023/06/19 11:10:37;;;;;;;;;;;24.70;58.20;;;;;;4117651;28;19961;-90
2023/06/19 11:13:01;;;;;;;;;;;24.80;57.40;;;;;;4116745;28;19926;-87
2023/06/19 11:15:31;;;;;;;;;;;24.90;56.50;;;;;;4126767;28;19918;-87
2023/06/19 11:17:52;;;;;;;;;;;25.00;57.20;;;;;;4176459;23;20655;-87
2023/06/19 11:20:18;;;;;;;;;;;25.10;55.50;;;;;;4139959;28;19929;-92
2023/06/19 11:22:40;;;;;;;;;;;25.20;55.80;;;;;;4149492;28;20039;-88
2023/06/19 11:25:04;;;;;;;;;;;25.20;56.10;;;;;;4152050;28;19920;-87
2023/06/19 11:27:28;;;;;;;;;;;25.30;55.30;;;;;;4144992;28;20238;-88
2023/06/19 11:29:54;;;;;;;;;;;25.40;56.20;;;;;;4140441;28;20530;-88
2023/06/19 11:32:24;;;;;;;;;;;25.40;54.10;;;;;;4152665;28;19956;-87
2023/06/19 11:34:54;;;;;;;;;;;25.40;54.60;;;;;;4137955;28;20363;-88
2023/06/19 11:37:54;;;;;;;;;;;;;;;;;;;;;
2023/06/19 11:40:17;;;;;;;;;;;25.50;52.80;;;;;;4101866;28;20004;-88
2023/06/19 11:43:09;;;;;;;;;;;25.60;54.20;;;;;;4088185;28;19930;-87
2023/06/19 11:45:52;;;;;;;;;;;25.60;53.90;;;;;;4089970;28;20321;-89
2023/06/19 11:48:33;;;;;;;;;;;25.60;53.70;;;;;;4099680;28;20466;-88
2023/06/19 11:51:48;;;;;;;;;;;25.60;53.30;;;;;;4089008;28;19977;-89
2023/06/19 11:54:09;;;;;;;;;;;25.70;53.00;;;;;;4086550;28;20069;-89
2023/06/19 11:59:14;;;;;;;;;;;25.80;50.10;;;;;;4085829;28;19925;-86
2023/06/19 12:01:36;;;;;;;;;;;25.90;53.20;;;;;;4086232;28;19921;-88
2023/06/19 12:04:03;;;;;;;;;;;26.00;52.60;;;;;;4073656;28;19981;-89
2023/06/19 12:06:44;;;;;;;;;;;26.00;51.00;;;;;;4074507;28;19950;-89
2023/06/19 12:09:05;;;;;;;;;;;26.10;50.60;;;;;;4075077;29;19962;-90
2023/06/19 12:14:10;;;;;;;;;;;26.20;52.10;;;;;;4041112;29;19923;-89
2023/06/19 12:27:23;;;;;;;;;;;26.60;50.70;;;;;;4168743;28;19922;-85
2023/06/19 12:29:44;;;;;;;;;;;26.70;49.80;;;;;;4172004;28;19917;-84
2023/06/19 12:32:05;;;;;;;;;;;26.80;51.40;;;;;;4175131;28;19935;-84
2023/06/19 12:34:26;;;;;;;;;;;26.90;51.80;;;;;;4159771;28;19942;-84
2023/06/19 12:36:47;;;;;;;;;;;27.00;51.60;;;;;;4166961;28;20418;-84
2023/06/19 12:39:14;;;;;;;;;;;27.10;52.00;;;;;;4165317;28;19917;-85
2023/06/19 12:41:35;;;;;;;;;;;27.10;51.80;;;;;;4169439;28;20003;-82
2023/06/19 12:43:56;;;;;;;;;;;27.20;50.70;;;;;;4160679;28;19948;-82
2023/06/19 12:46:17;;;;;;;;;;;27.30;48.70;;;;;;4166694;28;19935;-83
2023/06/19 12:48:37;;;;;;;;;;;27.40;48.10;;;;;;4168167;28;20485;-82
2023/06/19 12:50:58;;;;;;;;;;;27.50;48.00;;;;;;4154528;28;19917;-83
2023/06/19 12:53:19;;;;;;;;;;;27.60;49.20;;;;;;4165442;28;19913;-83
2023/06/19 12:55:40;;;;;;;;;;;27.70;48.60;;;;;;4168770;28;19913;-84
2023/06/19 12:58:01;;;;;;;;;;;27.70;49.00;;;;;;4166595;28;19929;-83
2023/06/19 13:00:22;;;;;;;;;;;27.80;47.50;;;;;;4167548;28;20177;-82
2023/06/19 13:02:43;;;;;;;;;;;27.90;46.40;;;;;;4163899;28;20456;-82
2023/06/19 13:05:04;;;;;;;;;;;27.90;48.40;;;;;;4168067;28;19956;-82
2023/06/19 13:07:24;;;;;;;;;;;28.00;47.40;;;;;;4168286;28;19989;-82
2023/06/19 13:09:45;;;;;;;;;;;28.00;47.30;;;;;;4167297;28;20022;-83
2023/06/19 13:12:06;;;;;;;;;;;28.00;47.90;;;;;;4168249;28;20612;-83
2023/06/19 13:14:27;;;;;;;;;;;28.10;45.30;;;;;;4166158;28;20426;-81
2023/06/19 13:16:51;;;;;;;;;;;28.10;46.00;;;;;;4162833;28;20262;-82
2023/06/19 13:19:13;;;;;;;;;;;28.20;47.40;;;;;;4165959;28;19917;-83
2023/06/19 13:21:35;;;;;;;;;;;28.10;46.70;;;;;;4164919;28;19917;-81
2023/06/19 13:23:56;;;;;;;;;;;28.00;47.00;;;;;;4149067;28;19917;-82
2023/06/19 13:26:17;;;;;;;;;;;28.00;46.50;;;;;;4162600;28;20402;-83
2023/06/19 13:28:38;;;;;;;;;;;27.90;46.60;;;;;;4165196;28;19918;-83
2023/06/19 13:30:59;;;;;;;;;;;27.90;46.90;;;;;;4151727;28;19924;-83
2023/06/19 13:33:21;;;;;;;;;;;27.90;46.20;;;;;;4163707;28;20319;-81
2023/06/19 13:35:42;;;;;;;;;;;27.80;46.40;;;;;;4166428;28;19919;-82
2023/06/19 13:38:03;;;;;;;;;;;27.70;46.60;;;;;;4145122;28;19921;-82
2023/06/19 13:40:23;;;;;;;;;;;27.70;46.80;;;;;;4154182;28;19917;-82
2023/06/19 13:42:44;;;;;;;;;;;27.60;47.40;;;;;;4165442;28;20573;-82
2023/06/19 13:45:05;;;;;;;;;;;27.60;47.60;;;;;;4163016;28;20011;-81
2023/06/19 13:47:26;;;;;;;;;;;27.50;48.00;;;;;;4164255;28;19913;-83
2023/06/19 13:49:47;;;;;;;;;;;27.50;48.20;;;;;;4166435;28;20379;-82
2023/06/19 13:52:08;;;;;;;;;;;27.40;48.20;;;;;;4164071;28;19941;-83
2023/06/19 13:54:29;;;;;;;;;;;27.40;48.30;;;;;;4159100;28;19964;-81
2023/06/19 13:56:51;;;;;;;;;;;27.30;48.80;;;;;;4164414;28;19975;-82
2023/06/19 13:59:11;;;;;;;;;;;27.20;48.70;;;;;;4164837;28;19925;-82
2023/06/19 14:01:32;;;;;;;;;;;27.10;48.80;;;;;;4159879;28;19963;-82
2023/06/19 14:03:53;;;;;;;;;;;27.00;49.30;;;;;;4149955;28;19967;-82
2023/06/19 14:06:14;;;;;;;;;;;26.90;49.70;;;;;;4160764;28;19928;-83
2023/06/19 14:08:35;;;;;;;;;;;26.80;49.70;;;;;;4158221;28;19917;-83
2023/06/19 14:10:56;;;;;;;;;;;26.70;49.60;;;;;;4160209;28;20534;-81
2023/06/19 14:13:16;;;;;;;;;;;26.60;50.10;;;;;;4162857;28;20398;-83